• Join FlightAware (Why Join?)
  • Login
  • US Flag 
08:13PM EDT


 

Airport Tracker/Info


-or-


 

Live Flight TrackerFlight Track Log ✈ UAL5840 ✈ 22-Apr-2013 ✈ CYWG - KORD

Flight Track Log - Related Links

Times and Time Zones

All times are in EDT time to prevent confusion due to time zone crossing. See the UAL5840 flight status page for this flight to view local times or setup timezone preferences in your user account.

Time Position Orientation Groundspeed Altitude Reporting Facility
EDT Latitude Longitude Course Direction KTS MPH feet Rate Location/Type
01:47PM 49.9500 -97.2000 147° Southeast 180 207 3,500  Level Winnipeg Center
01:48PM 49.9833 -97.1500 44° Northeast 220 253 5,700 2,040 Climbing Winnipeg Center
01:49PM 49.9167 -97.1167 162° South 250 288 7,600 1,680 Climbing Winnipeg Center
01:51PM 49.8193 -96.9795 147° Southeast  Level Estimated
01:51PM 49.7833 -97.0500 147° Southeast 310 357 10,800  Level Winnipeg Center
01:52PM 49.3763 -96.7096 147° Southeast  Level FlightAware Approximate
01:52PM 49.6833 -97.0000 162° South 350 403 11,500  Level Winnipeg Center
01:53PM 49.2845 -96.6177 147° Southeast  Level FlightAware Approximate
01:53PM 49.6000 -96.9167 147° Southeast 370 426 12,700  Level Winnipeg Center
01:54PM 49.5000 -96.8333 152° Southeast 370 426 14,300 1,500 Climbing Winnipeg Center
01:55PM 49.4167 -96.7667 153° Southeast 370 426 15,800 1,380 Climbing Winnipeg Center
01:56PM 49.3333 -96.6500 138° Southeast 370 426 17,100 1,020 Climbing Winnipeg Center
01:57PM 49.2333 -96.5833 156° South 370 426 17,900 960 Climbing Winnipeg Center
01:58PM 49.1500 -96.5000 147° Southeast 380 437 19,100 1,200 Climbing Winnipeg Center
01:59PM 49.0500 -96.4000 147° Southeast 380 437 20,400 1,200 Climbing Winnipeg Center
02:00PM 48.9500 -96.3333 156° South 380 437 21,600 1,200 Climbing Winnipeg Center
02:01PM 48.8667 -96.2333 142° Southeast 380 437 22,900 1,200 Climbing Winnipeg Center
02:02PM 48.7833 -96.1500 147° Southeast 380 437 24,000 1,200 Climbing Winnipeg Center
02:03PM 48.6833 -96.0833 156° South 380 437 25,300 1,200 Climbing Winnipeg Center
02:04PM 48.6000 -95.9833 142° Southeast 370 426 26,500 1,200 Climbing Winnipeg Center
02:05PM 48.5167 -95.9000 146° Southeast 370 426 27,700 1,200 Climbing Winnipeg Center
02:06PM 48.4333 -95.8333 152° Southeast 360 414 28,900 1,200 Climbing Winnipeg Center
02:07PM 48.3500 -95.7667 152° Southeast 360 414 30,100 1,200 Climbing Winnipeg Center
02:08PM 48.2667 -95.6833 146° Southeast 360 414 31,400 1,140 Climbing Winnipeg Center
02:09PM 48.1833 -95.6167 152° Southeast 360 414 32,400 840 Climbing Winnipeg Center
02:10PM 48.1875 -95.6144 20° North 356 410 32,500 900 Climbing Minneapolis Center
02:11PM 48.0842 -95.5222 149° Southeast 359 413 33,600 840 Climbing Minneapolis Center
02:12PM 48.0289 -95.4717 149° Southeast 359 413 34,300 660 Climbing Minneapolis Center
02:13PM 47.9075 -95.3636 149° Southeast 362 417 35,000 300 Climbing Minneapolis Center
02:14PM 47.8156 -95.2825 149° Southeast 375 432 35,000  Level Minneapolis Center
02:15PM 47.7178 -95.1967 149° Southeast 395 455 35,000  Level Minneapolis Center
02:16PM 47.6167 -95.1067 149° Southeast 414 476 35,000  Level Minneapolis Center
02:17PM 47.5125 -95.0150 149° Southeast 429 494 35,000 120 Level Minneapolis Center
02:18PM 47.4067 -94.9219 149° Southeast 441 507 35,300 780 Climbing Minneapolis Center
02:19PM 47.2842 -94.8158 150° Southeast 429 494 36,700 780 Climbing Minneapolis Center
02:20PM 47.1844 -94.7306 150° Southeast 419 482 37,000 120 Climbing Minneapolis Center
02:21PM 47.0817 -94.6428 150° Southeast 428 493 37,000  Level Minneapolis Center
02:22PM 46.9764 -94.5531 150° Southeast 438 504 37,000  Level Minneapolis Center
02:23PM 46.8708 -94.4628 150° Southeast 441 507 37,000  Level Minneapolis Center
02:24PM 46.7672 -94.3761 150° Southeast 434 499 37,000  Level Minneapolis Center
02:25PM 46.6442 -94.2744 150° Southeast 427 491 37,000  Level Minneapolis Center
02:26PM 46.5428 -94.1875 149° Southeast 427 491 37,000  Level Minneapolis Center
02:27PM 46.4408 -94.1031 150° Southeast 424 488 37,000  Level Minneapolis Center
02:28PM 46.3381 -94.0217 151° Southeast 424 488 37,000  Level Minneapolis Center
02:29PM 46.2311 -93.9631 159° South 415 478 37,000  Level Minneapolis Center
02:30PM 46.1072 -93.8956 159° South 414 476 37,000  Level Minneapolis Center
02:31PM 46.0203 -93.8464 159° South 416 479 37,000  Level Minneapolis Center
02:32PM 45.8914 -93.7744 159° South 416 479 37,000  Level Minneapolis Center
02:33PM 45.7819 -93.7161 160° South 419 482 37,000  Level Minneapolis Center
02:34PM 45.6728 -93.6558 159° South 422 486 37,000  Level Minneapolis Center
02:35PM 45.5625 -93.5956 159° South 425 489 37,000  Level Minneapolis Center
02:36PM 45.4300 -93.5256 160° South 423 487 37,000  Level Minneapolis Center
02:37PM 45.3183 -93.4656 159° South 427 491 37,000  Level Minneapolis Center
02:38PM 45.2081 -93.4069 159° South 425 489 37,000  Level Minneapolis Center
02:39PM 45.1139 -93.2997 141° Southeast 444 511 37,000  Level Minneapolis Center
02:40PM 45.0483 -93.1397 120° Southeast 465 535 37,000  Level Minneapolis Center
02:41PM 44.9808 -92.9792 121° Southeast 468 539 37,000  Level Minneapolis Center
02:42PM 44.9131 -92.8197 121° Southeast 470 541 37,000  Level Minneapolis Center
02:44PM 44.8456 -92.6597 121° Southeast 472 543 37,000  Level Minneapolis Center
02:45PM 44.7503 -92.4383 121° Southeast 473 544 37,000  Level Minneapolis Center
02:46PM 44.6822 -92.2797 121° Southeast 473 544 37,000  Level Minneapolis Center
02:47PM 44.6139 -92.1219 121° Southeast 474 545 37,000  Level Minneapolis Center
02:48PM 44.5450 -91.9653 122° Southeast 473 544 37,000  Level Minneapolis Center
02:49PM 44.4764 -91.8083 121° Southeast 474 545 37,000 -480 Level Minneapolis Center
02:50PM 44.4083 -91.6536 122° Southeast 470 541 36,100 -1,260 Descending Minneapolis Center
02:51PM 44.3300 -91.4722 121° Southeast 460 529 34,400 -1,620 Descending Minneapolis Center
02:52PM 44.2617 -91.3236 123° Southeast 457 526 32,800 -1,380 Descending Minneapolis Center
02:53PM 44.1931 -91.1672 121° Southeast 463 533 31,600 -840 Descending Minneapolis Center
02:54PM 44.1247 -91.0158 122° Southeast 463 533 31,100 -300 Descending Minneapolis Center
02:55PM 44.0461 -90.8733 127° Southeast 467 537 31,000 -60 Descending Minneapolis Center
02:56PM 43.9675 -90.7378 129° Southeast 456 525 31,000  Level Minneapolis Center
02:57PM 43.8903 -90.6044 129° Southeast 448 516 31,000  Level Minneapolis Center
02:58PM 43.8083 -90.4611 128° Southeast 450 518 31,000  Level Minneapolis Center
02:59PM 43.7192 -90.3078 129° Southeast 451 519 31,000  Level Minneapolis Center
03:00PM 43.6369 -90.1672 129° Southeast 455 524 31,000 -480 Level Minneapolis Center
03:01PM 43.5564 -90.0311 129° Southeast 458 527 30,100 -1,740 Descending Minneapolis Center
03:02PM 43.4747 -89.8911 129° Southeast 466 536 27,500 -2,700 Descending Minneapolis Center
03:03PM 43.4214 -89.8028 130° Southeast 458 527 25,500 -2,700 Descending Chicago Center
03:04PM 43.3442 -89.6744 130° Southeast 439 505 22,900 -1,860 Descending Chicago Center
03:05PM 43.2550 -89.5236 129° Southeast 436 502 21,700 -1,260 Descending Chicago Center
03:06PM 43.1789 -89.3992 130° Southeast 431 496 20,400 -1,620 Descending Chicago Center
03:07PM 43.0906 -89.3175 146° Southeast 391 450 18,400 -1,860 Descending Chicago Center
03:08PM 43.0033 -89.2314 144° Southeast 391 450 16,600 -1,860 Descending Chicago Center
03:09PM 42.9225 -89.1375 140° Southeast 385 443 14,600 -1,860 Descending Chicago Center
03:10PM 42.8336 -89.0311 139° Southeast 367 422 12,800 -1,260 Descending Chicago Center
03:11PM 42.7542 -88.9383 139° Southeast 374 430 12,100 -420 Descending Chicago Center
03:12PM 42.6744 -88.8469 140° Southeast 377 434 12,000 -60 Descending Chicago Center
03:13PM 42.5972 -88.7558 139° Southeast 371 427 12,000 -300 Level Chicago Center
03:14PM 42.5186 -88.6653 140° Southeast 371 427 11,500 -840 Descending Chicago Center
03:15PM 42.4506 -88.5878 140° Southeast 317 365 10,400 -1,260 Descending Chicago Center
03:16PM 42.3833 -88.5100 139° Southeast 278 320 9,000 -900 Descending Chicago Center
03:17PM 42.3408 -88.4283 125° Southeast 275 316 8,600 -780 Descending Chicago Center
03:18PM 42.3133 -88.3339 111° Southeast 274 315 7,500 -840 Descending Chicago Center
03:19PM 42.2728 -88.2544 125° Southeast 265 305 7,000 -420 Descending Chicago Center
03:20PM 42.2183 -88.1925 140° Southeast 259 298 6,700 -900 Descending Chicago Center
03:21PM 42.1658 -88.1331 140° Southeast 253 291 5,200 -1,380 Descending Chicago Center
03:23PM 42.1181 -88.0769 139° Southeast 236 272 3,900 -1,320 Descending Chicago Center
03:23PM 42.0833 -88.0333 137° Southeast 201 231 3,000 -1,020 Descending Chicago TRACON
03:24PM 42.0500 -88.0000 143° Southeast 168 193 2,300 -840 Descending Chicago TRACON
03:25PM 42.0167 -87.9667 143° Southeast 134 154 1,600 -840 Descending Chicago TRACON
03:26PM 42.0000 -87.9333 124° Southeast 137 158 800 -780 Descending Chicago TRACON
03:28PM 41.9817 -87.9067 143° Southeast  Level Estimated